createdAt,value
2022-10-19T00:00:33.392Z,101237.84
2022-10-19T00:05:36.039Z,101248.81
2022-10-19T00:10:41.178Z,101241.84
2022-10-19T00:15:46.062Z,101243.88
2022-10-19T00:20:48.737Z,101238.66
2022-10-19T00:25:57.694Z,101238.75
2022-10-19T00:31:05.252Z,101238.91
2022-10-19T00:36:16.711Z,101235.44
2022-10-19T00:41:20.964Z,101231.03
2022-10-19T00:46:25.646Z,101229.34
2022-10-19T00:51:30.130Z,101227.63
2022-10-19T00:56:33.412Z,101227.88
2022-10-19T01:01:37.849Z,101224.31
2022-10-19T01:06:41.798Z,101216.31
2022-10-19T01:11:51.647Z,101219.13
2022-10-19T01:17:06.785Z,101223.72
2022-10-19T01:22:25.057Z,101230.28
2022-10-19T01:28:04.269Z,101227.59
2022-10-19T01:33:22.880Z,101217.81
2022-10-19T01:38:34.900Z,101214.34
2022-10-19T01:43:43.862Z,101218.94
2022-10-19T01:48:55.943Z,101226.28
2022-10-19T01:54:02.259Z,101221.84
2022-10-19T01:59:08.905Z,101236.34
2022-10-19T02:04:16.871Z,101231.94
2022-10-19T02:09:20.181Z,101231.16
2022-10-19T02:14:26.650Z,101226.72
2022-10-19T02:19:30.768Z,101234.88
2022-10-19T02:24:33.497Z,101232.28
2022-10-19T02:29:38.105Z,101222.47
2022-10-19T02:34:42.867Z,101228.03
2022-10-19T02:39:45.546Z,101220.81
2022-10-19T02:44:52.627Z,101211.94
2022-10-19T02:49:56.865Z,101205.78
2022-10-19T02:54:59.637Z,101211.16
2022-10-19T03:00:03.525Z,101213.00
2022-10-19T03:05:08.735Z,101200.53
2022-10-19T03:10:11.349Z,101213.16
2022-10-19T03:15:16.808Z,101215.84
2022-10-19T03:20:20.886Z,101225.78
2022-10-19T03:25:23.703Z,101220.28
2022-10-19T03:30:29.137Z,101217.84
2022-10-19T03:35:33.229Z,101226.00
2022-10-19T03:40:35.922Z,101232.34
2022-10-19T03:45:38.614Z,101234.28
2022-10-19T03:50:42.600Z,101239.69
2022-10-19T03:55:45.421Z,101237.03
2022-10-19T04:00:48.127Z,101236.09
2022-10-19T04:05:52.229Z,101228.09
2022-10-19T04:11:00.173Z,101221.94
2022-10-19T04:16:03.342Z,101222.88
2022-10-19T04:21:07.986Z,101230.09
2022-10-19T04:26:10.865Z,101245.47
2022-10-19T04:31:14.102Z,101238.25
2022-10-19T04:36:18.147Z,101239.22
2022-10-19T04:41:22.057Z,101250.88
2022-10-19T04:46:25.960Z,101252.69
2022-10-19T04:51:30.355Z,101244.72
2022-10-19T04:56:33.293Z,101252.78
2022-10-19T05:01:35.920Z,101243.84
2022-10-19T05:06:39.907Z,101246.63
2022-10-19T05:11:42.586Z,101248.53
2022-10-19T05:16:45.361Z,101257.47
2022-10-19T05:21:49.360Z,101246.78
2022-10-19T05:26:52.309Z,101254.88
2022-10-19T05:31:55.064Z,101256.69
2022-10-19T05:36:59.153Z,101258.63
2022-10-19T05:42:01.775Z,101265.81
2022-10-19T05:47:04.485Z,101264.06
2022-10-19T05:52:08.489Z,101274.84
2022-10-19T05:57:11.194Z,101275.91
2022-10-19T06:02:15.103Z,101283.19
2022-10-19T06:07:19.332Z,101275.19
2022-10-19T06:12:24.932Z,101274.44
2022-10-19T06:17:29.906Z,101288.78
2022-10-19T06:22:34.003Z,101289.72
2022-10-19T06:27:37.355Z,101293.38
2022-10-19T06:32:40.438Z,101300.50
2022-10-19T06:37:45.381Z,101300.50
2022-10-19T06:42:48.107Z,101299.63
2022-10-19T06:47:50.890Z,101304.22
2022-10-19T06:52:54.965Z,101303.25
2022-10-19T06:58:01.589Z,101307.88
2022-10-19T07:03:04.330Z,101308.84
2022-10-19T07:08:08.464Z,101316.91
2022-10-19T07:13:11.160Z,101327.59
2022-10-19T07:18:14.360Z,101332.13
2022-10-19T07:23:18.337Z,101329.44
2022-10-19T07:28:21.922Z,101343.00
2022-10-19T07:33:25.276Z,101346.56
2022-10-19T07:38:29.958Z,101345.59
2022-10-19T07:43:32.896Z,101350.13
2022-10-19T07:48:36.376Z,101348.38
2022-10-19T07:53:40.631Z,101347.44
2022-10-19T07:58:43.457Z,101351.84
2022-10-19T08:09:27.765Z,101364.38
2022-10-19T08:14:34.530Z,101361.78
2022-10-19T08:19:41.305Z,101364.47
2022-10-19T08:24:45.696Z,101366.28
2022-10-19T08:29:48.587Z,101363.50
2022-10-19T08:34:51.586Z,101362.63
2022-10-19T08:39:55.791Z,101362.63
2022-10-19T08:45:26.877Z,101359.94
2022-10-19T08:50:36.616Z,101356.28
2022-10-19T08:55:50.720Z,101352.59
2022-10-19T09:01:01.418Z,101349.88
2022-10-19T09:06:19.984Z,101346.31
2022-10-19T09:11:26.687Z,101359.31
2022-10-19T09:16:29.435Z,101358.84
2022-10-19T09:21:47.407Z,101360.66
2022-10-19T09:26:54.592Z,101361.16
2022-10-19T09:32:01.565Z,101365.25
2022-10-19T09:37:04.774Z,101369.47
2022-10-19T09:42:19.561Z,101359.53
2022-10-19T09:47:39.421Z,101365.25
2022-10-19T09:52:44.308Z,101366.53
2022-10-19T09:57:50.609Z,101355.44
2022-10-19T10:02:55.708Z,101349.78
2022-10-19T10:07:59.223Z,101354.84
2022-10-19T10:13:04.126Z,101360.84
2022-10-19T10:18:06.862Z,101359.66
2022-10-19T10:23:24.488Z,101357.84
2022-10-19T10:28:29.917Z,101355.00
2022-10-19T10:39:06.010Z,101359.25
2022-10-19T10:44:20.236Z,101352.94
2022-10-19T10:49:25.809Z,101352.75
2022-10-19T10:54:31.200Z,101358.06
2022-10-19T10:59:44.755Z,101356.94
2022-10-19T11:04:53.273Z,101352.44
2022-10-19T11:09:59.765Z,101359.41
2022-10-19T11:15:13.045Z,101352.28
2022-10-19T11:20:16.977Z,101342.69
2022-10-19T11:25:32.219Z,101347.34
2022-10-19T11:30:49.879Z,101342.47
2022-10-19T11:35:58.037Z,101338.53
2022-10-19T11:41:19.066Z,101341.00
2022-10-19T11:46:29.883Z,101323.69
2022-10-19T11:51:39.880Z,101328.75
2022-10-19T11:57:02.875Z,101330.44
2022-10-19T12:02:31.713Z,101326.69
2022-10-19T12:07:51.203Z,101321.16
2022-10-19T12:12:58.767Z,101314.66
2022-10-19T12:18:08.320Z,101310.03
2022-10-19T12:23:24.024Z,101308.06
2022-10-19T12:28:30.984Z,101306.22
2022-10-19T12:33:47.279Z,101299.78
2022-10-19T12:39:00.842Z,101300.50
2022-10-19T12:44:21.385Z,101298.69
2022-10-19T12:49:45.513Z,101290.50
2022-10-19T12:54:48.507Z,101291.22
2022-10-19T13:00:01.472Z,101283.81
2022-10-19T13:05:06.657Z,101279.28
2022-10-19T13:10:21.805Z,101283.47
2022-10-19T13:15:58.100Z,101280.72
2022-10-19T13:21:03.617Z,101273.50
2022-10-19T13:26:33.640Z,101277.81
2022-10-19T13:31:37.543Z,101276.81
2022-10-19T13:37:00.844Z,101279.31
2022-10-19T13:42:03.638Z,101274.72
2022-10-19T13:47:32.535Z,101264.88
2022-10-19T13:53:12.461Z,101271.94
2022-10-19T13:59:03.384Z,101272.91
2022-10-19T14:04:20.585Z,101275.50
2022-10-19T14:09:43.733Z,101263.75
2022-10-19T14:14:46.660Z,101264.66
2022-10-19T14:19:51.947Z,101260.06
2022-10-19T14:25:03.606Z,101251.09
2022-10-19T14:30:07.890Z,101255.59
2022-10-19T14:35:21.504Z,101253.06
2022-10-19T14:40:28.660Z,101250.47
2022-10-19T14:45:33.059Z,101254.03
2022-10-19T14:50:47.318Z,101254.09
2022-10-19T14:55:55.557Z,101258.59
2022-10-19T15:00:58.365Z,101257.75
2022-10-19T15:06:03.723Z,101249.75
2022-10-19T15:11:09.001Z,101249.66
2022-10-19T15:16:29.887Z,101239.84
2022-10-19T15:21:33.485Z,101255.16
2022-10-19T15:26:38.043Z,101238.09
2022-10-19T15:31:40.829Z,101241.75
2022-10-19T15:36:55.465Z,101248.97
2022-10-19T15:42:22.808Z,101237.38
2022-10-19T15:47:26.824Z,101232.97
2022-10-19T15:52:32.854Z,101242.88
2022-10-19T15:57:39.287Z,101231.13
2022-10-19T16:02:42.633Z,101222.19
2022-10-19T16:07:45.507Z,101226.00
2022-10-19T16:12:49.638Z,101223.41
2022-10-19T16:17:55.125Z,101229.75
2022-10-19T16:22:58.714Z,101228.69
2022-10-19T16:28:02.835Z,101230.47
2022-10-19T16:33:05.674Z,101231.13
2022-10-19T16:38:08.280Z,101236.38
2022-10-19T16:43:12.317Z,101235.41
2022-10-19T16:48:14.961Z,101235.31
2022-10-19T16:53:17.692Z,101242.44
2022-10-19T16:58:21.638Z,101243.25
2022-10-19T17:03:24.243Z,101241.41
2022-10-19T17:08:36.678Z,101246.78
2022-10-19T17:13:41.904Z,101241.31
2022-10-19T17:18:44.898Z,101241.25
2022-10-19T17:23:47.951Z,101237.69
2022-10-19T17:28:51.948Z,101250.25
2022-10-19T17:33:55.373Z,101240.44
2022-10-19T17:38:59.752Z,101238.72
2022-10-19T17:44:05.395Z,101233.31
2022-10-19T17:49:08.919Z,101235.00
2022-10-19T17:54:13.728Z,101243.53
2022-10-19T17:59:22.613Z,101245.88
2022-10-19T18:04:32.479Z,101237.16
2022-10-19T18:09:35.132Z,101237.66
2022-10-19T18:14:39.182Z,101237.31
2022-10-19T18:19:42.019Z,101243.03
2022-10-19T18:24:44.959Z,101241.72
2022-10-19T18:29:49.168Z,101230.44
2022-10-19T18:34:51.799Z,101235.69
2022-10-19T18:39:54.507Z,101235.59
2022-10-19T18:44:58.853Z,101229.81
2022-10-19T18:50:01.799Z,101222.50
2022-10-19T18:55:05.208Z,101212.47
2022-10-19T19:00:11.027Z,101212.91
2022-10-19T19:05:13.780Z,101211.88
2022-10-19T19:10:16.996Z,101210.72
2022-10-19T19:15:21.005Z,101199.59
2022-10-19T19:20:23.625Z,101199.34
2022-10-19T19:25:26.268Z,101206.19
2022-10-19T19:30:30.369Z,101205.03
2022-10-19T19:35:33.178Z,101213.72
2022-10-19T19:40:39.065Z,101218.94
2022-10-19T19:45:44.223Z,101218.75
2022-10-19T19:50:47.653Z,101215.88
2022-10-19T19:55:50.817Z,101206.59
2022-10-19T20:00:54.815Z,101218.06
2022-10-19T20:06:02.193Z,101223.19
2022-10-19T20:11:07.526Z,101222.22
2022-10-19T20:16:13.479Z,101226.47
2022-10-19T20:21:17.780Z,101223.28
2022-10-19T20:26:22.192Z,101227.63
2022-10-19T20:36:36.102Z,101224.94
2022-10-19T20:41:38.752Z,101221.31
2022-10-19T20:46:42.703Z,101220.22
2022-10-19T20:51:45.397Z,101215.69
2022-10-19T20:56:48.382Z,101203.91
2022-10-19T21:01:54.131Z,101200.16
2022-10-19T21:06:57.257Z,101201.88
2022-10-19T21:12:01.157Z,101190.09
2022-10-19T21:17:05.270Z,101182.84
2022-10-19T21:22:08.465Z,101178.41
2022-10-19T21:27:12.061Z,101170.31
2022-10-19T21:32:18.001Z,101168.56
2022-10-19T21:37:20.605Z,101171.28
2022-10-19T21:42:23.280Z,101161.31
2022-10-19T21:47:27.288Z,101156.03
2022-10-19T21:52:29.962Z,101155.16
2022-10-19T21:57:32.753Z,101148.00
2022-10-19T22:02:36.957Z,101142.59
2022-10-19T22:07:39.757Z,101141.72
2022-10-19T22:12:42.382Z,101139.25
2022-10-19T22:17:46.406Z,101140.22
2022-10-19T22:22:51.477Z,101144.03
2022-10-19T22:27:56.891Z,101135.38
2022-10-19T22:33:01.098Z,101138.25
2022-10-19T22:38:03.697Z,101137.78
2022-10-19T22:43:06.949Z,101130.88
2022-10-19T22:48:10.978Z,101123.03
2022-10-19T22:53:14.220Z,101116.28
2022-10-19T22:58:17.137Z,101117.63
2022-10-19T23:03:21.064Z,101114.75
2022-10-19T23:08:23.871Z,101106.94
2022-10-19T23:13:26.621Z,101104.56
2022-10-19T23:18:32.910Z,101104.03
2022-10-19T23:23:37.301Z,101102.59
2022-10-19T23:28:42.239Z,101098.34
2022-10-19T23:33:46.897Z,101085.88
2022-10-19T23:38:51.264Z,101086.16
2022-10-19T23:43:53.964Z,101083.56
2022-10-19T23:48:57.965Z,101076.53
2022-10-19T23:54:00.611Z,101071.44
2022-10-19T23:59:03.253Z,101071.59
